Time;durP1;ratioP1;P1;durP2;ratioP2;P2;SDS_P1;SDS_P2;PMS_P1;PMS_P2;Temp;Humidity;BMP_temperature;BMP_pressure;BME280_temperature;BME280_humidity;BME280_pressure;Samples;Min_cycle;Max_cycle;Signal;HPM_P1;HPM_P2
2021/03/14 00:02:12;;;;;;;1.70;0.93;;;6.60;99.90;;;;;;5046152;28;20410;-75
2021/03/14 00:04:37;;;;;;;3.28;1.35;;;6.50;99.90;;;;;;5051758;28;20095;-75
2021/03/14 00:07:05;;;;;;;1.08;0.90;;;6.60;99.90;;;;;;5043528;28;20491;-74
2021/03/14 00:09:30;;;;;;;1.30;0.90;;;6.60;99.90;;;;;;5042700;28;20029;-75
2021/03/14 00:11:56;;;;;;;4.57;1.00;;;6.60;99.90;;;;;;5044724;28;20087;-75
2021/03/14 00:14:22;;;;;;;1.77;1.05;;;6.50;99.90;;;;;;5046082;28;20025;-75
2021/03/14 00:16:48;;;;;;;2.83;0.90;;;6.60;99.90;;;;;;5043051;28;20024;-74
2021/03/14 00:19:14;;;;;;;2.88;0.90;;;6.50;99.90;;;;;;5042607;28;20131;-75
2021/03/14 00:21:39;;;;;;;1.77;0.85;;;6.60;99.90;;;;;;5047741;28;20495;-75
2021/03/14 00:24:05;;;;;;;2.10;1.08;;;6.60;99.90;;;;;;5049717;28;20434;-75
2021/03/14 00:26:31;;;;;;;1.90;1.17;;;6.60;99.90;;;;;;5045802;28;20177;-74
2021/03/14 00:28:56;;;;;;;2.05;1.20;;;6.60;99.90;;;;;;5046405;28;20037;-74
2021/03/14 00:31:22;;;;;;;1.23;1.00;;;6.60;99.90;;;;;;5045937;28;20033;-73
2021/03/14 00:33:47;;;;;;;1.17;1.05;;;6.60;99.90;;;;;;5062135;28;20052;-74
2021/03/14 00:36:13;;;;;;;3.22;0.85;;;6.60;99.90;;;;;;5046867;28;20033;-74
2021/03/14 00:38:38;;;;;;;3.20;1.10;;;6.60;99.90;;;;;;5049222;28;20016;-74
2021/03/14 00:41:04;;;;;;;3.67;1.02;;;6.60;99.90;;;;;;5046934;28;20373;-74
2021/03/14 00:43:30;;;;;;;2.08;1.08;;;6.60;99.90;;;;;;5027347;28;20059;-74
2021/03/14 00:45:58;;;;;;;1.88;1.00;;;6.50;99.90;;;;;;5057932;28;20024;-74
2021/03/14 00:48:23;;;;;;;1.95;1.20;;;6.60;99.90;;;;;;5048283;28;20047;-74
2021/03/14 00:50:49;;;;;;;4.10;1.20;;;6.60;99.90;;;;;;5047891;28;20258;-74
2021/03/14 00:53:14;;;;;;;2.25;1.10;;;6.60;99.90;;;;;;5050308;28;20088;-74
2021/03/14 00:55:40;;;;;;;6.50;1.30;;;6.60;99.90;;;;;;5051920;28;20028;-74
2021/03/14 00:58:06;;;;;;;1.67;1.00;;;6.60;99.90;;;;;;5047623;28;20021;-74
2021/03/14 01:00:32;;;;;;;2.22;1.00;;;6.50;99.90;;;;;;5048133;28;20043;-74
2021/03/14 01:02:57;;;;;;;3.35;1.10;;;6.60;99.90;;;;;;5048148;28;20196;-75
2021/03/14 01:05:23;;;;;;;1.92;0.98;;;6.60;99.90;;;;;;5052093;28;20156;-74
2021/03/14 01:07:48;;;;;;;4.63;0.90;;;6.60;99.90;;;;;;5049612;28;20052;-75
2021/03/14 01:10:15;;;;;;;0.98;0.80;;;6.60;99.90;;;;;;5050321;28;20036;-74
2021/03/14 01:12:41;;;;;;;2.25;0.98;;;6.60;99.90;;;;;;5048438;28;20353;-74
2021/03/14 01:15:13;;;;;;;2.42;1.10;;;6.60;99.90;;;;;;5051749;28;20028;-74
2021/03/14 01:17:39;;;;;;;1.45;1.10;;;6.60;99.90;;;;;;5047784;28;20028;-74
2021/03/14 01:20:09;;;;;;;1.52;1.15;;;6.60;99.90;;;;;;5054096;28;20047;-74
2021/03/14 01:22:34;;;;;;;1.30;1.00;;;6.60;99.90;;;;;;5050756;28;20475;-75
2021/03/14 01:25:00;;;;;;;3.25;1.30;;;6.60;99.90;;;;;;5051270;28;20040;-74
2021/03/14 01:27:25;;;;;;;4.07;1.38;;;6.60;99.90;;;;;;5049447;28;20549;-74
2021/03/14 01:29:51;;;;;;;4.10;1.48;;;6.60;99.90;;;;;;5048168;28;20036;-74
2021/03/14 01:32:17;;;;;;;3.15;1.38;;;6.60;99.90;;;;;;5029369;28;20036;-74
2021/03/14 01:34:42;;;;;;;3.47;1.33;;;6.60;99.90;;;;;;5055141;28;20032;-75
2021/03/14 01:37:08;;;;;;;4.30;1.52;;;6.50;99.90;;;;;;5036203;28;20380;-74
2021/03/14 01:39:34;;;;;;;3.85;1.58;;;6.50;99.90;;;;;;5053771;28;20058;-74
2021/03/14 01:41:59;;;;;;;4.00;1.30;;;6.50;99.90;;;;;;5045418;28;20033;-74
2021/03/14 01:44:25;;;;;;;3.22;1.42;;;6.50;99.90;;;;;;5048222;28;20036;-74
2021/03/14 01:46:51;;;;;;;4.55;1.60;;;6.50;99.90;;;;;;5053571;28;20435;-74
2021/03/14 01:49:17;;;;;;;3.10;1.50;;;6.50;99.90;;;;;;5047073;28;20057;-74
2021/03/14 01:51:43;;;;;;;4.05;1.45;;;6.50;99.90;;;;;;5051498;28;20017;-74
2021/03/14 01:54:09;;;;;;;6.07;1.80;;;6.60;99.90;;;;;;5041474;28;20024;-74
2021/03/14 01:56:35;;;;;;;5.30;1.65;;;6.60;99.90;;;;;;5044721;28;20033;-74
2021/03/14 01:59:01;;;;;;;3.03;1.88;;;6.60;99.90;;;;;;5048632;28;20431;-74
2021/03/14 02:01:27;;;;;;;5.38;1.67;;;6.50;99.90;;;;;;5042408;28;20044;-75
2021/03/14 02:03:52;;;;;;;1.52;1.30;;;6.60;99.90;;;;;;5051913;28;20036;-74
2021/03/14 02:06:18;;;;;;;3.47;1.95;;;6.60;99.90;;;;;;5046565;28;20043;-75
2021/03/14 02:08:43;;;;;;;1.98;1.50;;;6.70;99.90;;;;;;5049812;28;20020;-74
2021/03/14 02:11:09;;;;;;;4.30;1.77;;;6.60;99.90;;;;;;5049447;28;20122;-74
2021/03/14 02:13:42;;;;;;;3.92;1.88;;;6.70;99.90;;;;;;5048261;28;20115;-73
2021/03/14 02:16:28;;;;;;;3.00;1.48;;;6.60;99.90;;;;;;5046139;28;20114;-74
2021/03/14 02:18:58;;;;;;;2.97;1.40;;;6.70;99.90;;;;;;5047021;28;20052;-73
2021/03/14 02:21:25;;;;;;;2.22;1.33;;;6.70;99.90;;;;;;5049004;28;20028;-74
2021/03/14 02:24:20;;;;;;;3.88;1.92;;;6.70;99.90;;;;;;5047821;28;20037;-73
2021/03/14 02:27:01;;;;;;;3.45;1.60;;;6.60;99.90;;;;;;5049659;28;20020;-74
2021/03/14 02:29:27;;;;;;;6.37;2.23;;;6.60;99.90;;;;;;5049287;28;20407;-74
2021/03/14 02:31:55;;;;;;;3.45;1.70;;;6.60;99.90;;;;;;5049930;28;20028;-74
2021/03/14 02:34:29;;;;;;;5.78;1.92;;;6.60;99.90;;;;;;5047510;28;20021;-73
2021/03/14 02:36:56;;;;;;;5.57;2.08;;;6.60;99.90;;;;;;5041095;28;20024;-74
2021/03/14 02:39:24;;;;;;;3.58;2.10;;;6.50;99.90;;;;;;5054206;28;20039;-74
2021/03/14 02:41:52;;;;;;;5.78;2.20;;;6.40;99.90;;;;;;5050414;28;20054;-74
2021/03/14 02:44:19;;;;;;;5.55;1.98;;;6.30;99.90;;;;;;5051425;28;20582;-74
2021/03/14 02:46:45;;;;;;;10.82;2.30;;;6.20;99.90;;;;;;5045350;28;20032;-74
2021/03/14 02:49:12;;;;;;;6.43;2.30;;;6.10;99.90;;;;;;5043859;28;20044;-74
2021/03/14 02:51:39;;;;;;;8.15;2.60;;;6.10;99.90;;;;;;5051663;28;21736;-74
2021/03/14 02:54:07;;;;;;;5.03;2.40;;;6.00;99.90;;;;;;5050354;28;20124;-74
2021/03/14 02:56:33;;;;;;;3.78;1.95;;;6.00;99.90;;;;;;5050132;28;20032;-74
2021/03/14 02:59:01;;;;;;;3.20;1.85;;;6.00;99.90;;;;;;5043334;28;20017;-75
2021/03/14 03:01:27;;;;;;;4.25;1.75;;;6.00;99.90;;;;;;5047983;28;20103;-75
2021/03/14 03:03:57;;;;;;;5.65;2.45;;;5.90;99.90;;;;;;5046028;28;20028;-74
2021/03/14 03:06:23;;;;;;;7.22;2.03;;;5.90;99.90;;;;;;5053085;28;20028;-75
2021/03/14 03:08:49;;;;;;;3.17;2.03;;;5.90;99.90;;;;;;5044095;28;20425;-74
2021/03/14 03:11:16;;;;;;;8.55;2.00;;;5.90;99.90;;;;;;5050053;28;20055;-75
2021/03/14 03:13:42;;;;;;;2.65;2.00;;;5.80;99.90;;;;;;5054190;28;20024;-75
2021/03/14 03:16:12;;;;;;;6.30;2.28;;;5.70;99.90;;;;;;5050742;28;20183;-75
2021/03/14 03:18:39;;;;;;;9.83;2.97;;;5.70;99.90;;;;;;5053074;28;20036;-74
2021/03/14 03:21:06;;;;;;;7.15;2.08;;;5.60;99.90;;;;;;5049585;28;20032;-75
2021/03/14 03:23:33;;;;;;;10.43;2.35;;;5.60;99.90;;;;;;5048451;28;20056;-75
2021/03/14 03:26:03;;;;;;;3.80;2.10;;;5.50;99.90;;;;;;5051899;28;20029;-75
2021/03/14 03:28:29;;;;;;;3.75;1.70;;;5.50;99.90;;;;;;5046166;28;20024;-75
2021/03/14 03:30:55;;;;;;;2.70;1.85;;;5.50;99.90;;;;;;5046194;28;20424;-75
2021/03/14 03:33:20;;;;;;;3.65;1.58;;;5.50;99.90;;;;;;5044117;28;20039;-75
2021/03/14 03:35:47;;;;;;;3.00;1.88;;;5.50;99.90;;;;;;5054133;28;20029;-75
2021/03/14 03:38:12;;;;;;;3.08;1.33;;;5.50;99.90;;;;;;5053193;28;20036;-74
2021/03/14 03:40:38;;;;;;;2.58;1.20;;;5.50;99.90;;;;;;5045861;28;20021;-75
2021/03/14 03:43:25;;;;;;;1.17;0.93;;;5.40;99.90;;;;;;5047463;28;20036;-75
2021/03/14 03:45:55;;;;;;;2.58;1.30;;;5.40;99.90;;;;;;5046651;28;20510;-75
2021/03/14 03:48:40;;;;;;;2.25;1.10;;;5.40;99.90;;;;;;5048022;28;20067;-75
2021/03/14 03:51:06;;;;;;;0.80;0.80;;;5.40;99.90;;;;;;5045670;28;20037;-75
2021/03/14 03:53:33;;;;;;;1.02;0.90;;;5.30;99.90;;;;;;5048196;28;20171;-75
2021/03/14 03:55:59;;;;;;;2.55;0.63;;;5.30;99.90;;;;;;5053015;28;20451;-75
2021/03/14 03:58:27;;;;;;;1.30;0.95;;;5.30;99.90;;;;;;5057300;28;20025;-76
2021/03/14 04:00:56;;;;;;;3.00;1.17;;;5.20;99.90;;;;;;5047243;28;20021;-75
2021/03/14 04:03:23;;;;;;;1.33;0.88;;;5.20;99.90;;;;;;5046265;28;20040;-75
2021/03/14 04:05:54;;;;;;;2.00;0.98;;;5.20;99.90;;;;;;5049096;28;20029;-75
2021/03/14 04:08:20;;;;;;;1.60;1.10;;;5.10;99.90;;;;;;5054194;28;20029;-76
2021/03/14 04:10:46;;;;;;;1.00;0.90;;;5.10;99.90;;;;;;5051888;28;20053;-75
2021/03/14 04:13:12;;;;;;;4.57;0.98;;;5.10;99.90;;;;;;5051752;28;20087;-75
2021/03/14 04:15:39;;;;;;;1.10;0.85;;;5.10;99.90;;;;;;5050967;28;20078;-75
2021/03/14 04:18:06;;;;;;;1.10;0.90;;;5.10;99.90;;;;;;5054624;28;20131;-75
2021/03/14 04:20:35;;;;;;;0.73;0.70;;;5.10;99.90;;;;;;5053873;28;20151;-75
2021/03/14 04:23:05;;;;;;;1.88;1.00;;;5.00;99.90;;;;;;5050807;28;20037;-76
2021/03/14 04:25:31;;;;;;;0.60;0.60;;;5.10;99.90;;;;;;5047522;28;20543;-76
2021/03/14 04:27:59;;;;;;;2.00;0.85;;;5.00;99.90;;;;;;5048007;28;20120;-75
2021/03/14 04:30:29;;;;;;;1.30;0.70;;;5.10;99.90;;;;;;5054547;28;20480;-75
2021/03/14 04:32:56;;;;;;;1.90;0.75;;;5.10;99.90;;;;;;5060142;28;20040;-76
2021/03/14 04:35:24;;;;;;;1.35;0.70;;;5.00;99.90;;;;;;5044767;28;20032;-75
2021/03/14 04:37:49;;;;;;;0.40;0.40;;;5.00;99.90;;;;;;5050680;28;20112;-75
2021/03/14 04:40:16;;;;;;;2.65;0.75;;;5.00;99.90;;;;;;5053867;28;20115;-76
2021/03/14 04:42:45;;;;;;;1.20;0.60;;;5.00;99.90;;;;;;5068068;28;20483;-75
2021/03/14 04:45:11;;;;;;;0.52;0.52;;;5.00;99.90;;;;;;5057491;28;20029;-75
2021/03/14 04:47:41;;;;;;;0.95;0.52;;;5.00;99.90;;;;;;5041986;28;20047;-75
2021/03/14 04:50:07;;;;;;;3.33;0.70;;;5.00;99.90;;;;;;5049792;28;20048;-76
2021/03/14 04:52:35;;;;;;;1.10;0.50;;;5.00;99.90;;;;;;5049379;28;20375;-76
2021/03/14 04:55:00;;;;;;;0.50;0.50;;;5.00;99.90;;;;;;5053117;28;20027;-75
2021/03/14 04:57:29;;;;;;;2.60;0.70;;;5.00;99.90;;;;;;5051400;28;20518;-75
2021/03/14 04:59:55;;;;;;;0.68;0.50;;;4.90;99.90;;;;;;5038196;28;20438;-75
2021/03/14 05:02:22;;;;;;;0.50;0.50;;;4.90;99.90;;;;;;5049732;28;20028;-75
2021/03/14 05:04:51;;;;;;;2.55;0.32;;;4.90;99.90;;;;;;5048543;28;20028;-75
2021/03/14 05:07:19;;;;;;;1.70;0.70;;;4.90;99.90;;;;;;5054349;28;20835;-75
2021/03/14 05:09:45;;;;;;;0.60;0.60;;;4.90;99.90;;;;;;5046125;28;20041;-76
2021/03/14 05:12:11;;;;;;;0.43;0.43;;;4.90;99.90;;;;;;5045085;28;20090;-75
2021/03/14 05:14:37;;;;;;;0.70;0.70;;;4.90;99.90;;;;;;5047166;28;20040;-76
2021/03/14 05:17:04;;;;;;;1.73;0.57;;;4.90;99.90;;;;;;5045134;28;20439;-75
2021/03/14 05:19:34;;;;;;;0.70;0.70;;;4.90;99.90;;;;;;5060813;28;20021;-75
2021/03/14 05:22:01;;;;;;;1.58;0.70;;;5.00;99.90;;;;;;5052452;28;20060;-75
2021/03/14 05:24:28;;;;;;;0.88;0.60;;;5.00;99.90;;;;;;5048400;28;21059;-76
2021/03/14 05:26:55;;;;;;;1.25;0.60;;;5.00;99.90;;;;;;5055211;28;20033;-75
2021/03/14 05:29:23;;;;;;;1.20;0.70;;;5.00;99.90;;;;;;5050691;28;20020;-75
2021/03/14 05:31:49;;;;;;;1.73;0.55;;;5.00;99.90;;;;;;5045937;28;20024;-75
2021/03/14 05:34:16;;;;;;;2.55;0.50;;;5.00;99.90;;;;;;5049149;28;20028;-75
2021/03/14 05:36:43;;;;;;;0.55;0.55;;;4.90;99.90;;;;;;5057085;28;20024;-76
2021/03/14 05:39:08;;;;;;;1.23;0.60;;;4.90;99.90;;;;;;5052250;28;20044;-76
2021/03/14 05:41:35;;;;;;;0.88;0.77;;;4.90;99.90;;;;;;5050701;28;20059;-75
2021/03/14 05:44:02;;;;;;;0.50;0.50;;;4.90;99.90;;;;;;5047930;28;20040;-75
2021/03/14 05:46:28;;;;;;;0.65;0.60;;;4.90;99.90;;;;;;5054351;28;20040;-75
2021/03/14 05:48:53;;;;;;;0.75;0.73;;;4.90;99.90;;;;;;5053554;28;20049;-75
2021/03/14 05:51:30;;;;;;;1.20;0.70;;;4.90;99.90;;;;;;5053863;28;20863;-76
2021/03/14 05:53:58;;;;;;;1.67;0.77;;;4.90;99.90;;;;;;5041068;28;20422;-75
2021/03/14 05:56:24;;;;;;;0.52;0.52;;;4.90;99.90;;;;;;5040002;28;20021;-76
2021/03/14 05:58:52;;;;;;;0.55;0.55;;;4.80;99.90;;;;;;5051300;28;21433;-75
2021/03/14 06:01:21;;;;;;;0.55;0.55;;;4.80;99.90;;;;;;5050609;28;20082;-75
2021/03/14 06:03:47;;;;;;;0.98;0.60;;;4.90;99.90;;;;;;5050795;28;20081;-75
2021/03/14 06:06:14;;;;;;;1.83;0.70;;;4.90;99.90;;;;;;5048386;28;20024;-75
2021/03/14 06:08:41;;;;;;;0.80;0.70;;;4.90;99.90;;;;;;5047927;28;20083;-75
2021/03/14 06:11:07;;;;;;;0.68;0.60;;;4.90;99.90;;;;;;5046867;28;20070;-75
2021/03/14 06:13:33;;;;;;;0.57;0.57;;;4.90;99.90;;;;;;5048418;28;20025;-75
2021/03/14 06:15:59;;;;;;;0.90;0.68;;;4.90;99.90;;;;;;5048573;28;20238;-75
2021/03/14 06:18:25;;;;;;;2.25;0.60;;;5.00;99.90;;;;;;5049401;28;20073;-75
2021/03/14 06:20:52;;;;;;;0.88;0.75;;;5.00;99.90;;;;;;5043440;28;20471;-75
2021/03/14 06:23:19;;;;;;;3.42;0.85;;;5.00;99.90;;;;;;5047295;28;20033;-75
2021/03/14 06:25:47;;;;;;;0.55;0.55;;;5.00;99.90;;;;;;5046508;28;20063;-75
2021/03/14 06:28:14;;;;;;;0.60;0.60;;;5.10;99.90;;;;;;5054169;28;20059;-75
2021/03/14 06:30:41;;;;;;;0.98;0.60;;;5.10;99.90;;;;;;5046001;28;20033;-75
2021/03/14 06:33:12;;;;;;;1.02;0.70;;;5.10;99.90;;;;;;5048057;28;20021;-75
2021/03/14 06:35:46;;;;;;;3.38;0.70;;;5.10;99.90;;;;;;5043796;28;20254;-75
2021/03/14 06:38:29;;;;;;;0.70;0.70;;;5.10;99.90;;;;;;5044588;28;20029;-75
2021/03/14 06:41:06;;;;;;;0.47;0.47;;;5.10;99.90;;;;;;5043441;28;20033;-75
2021/03/14 06:43:47;;;;;;;1.13;0.80;;;5.00;99.90;;;;;;5058299;28;20103;-76
2021/03/14 06:46:20;;;;;;;3.03;0.75;;;5.10;99.90;;;;;;5048098;28;20393;-76
2021/03/14 06:49:07;;;;;;;0.93;0.80;;;5.00;99.90;;;;;;5040600;28;20044;-73
2021/03/14 06:51:56;;;;;;;0.80;0.80;;;5.10;99.90;;;;;;5046344;28;20021;-76
2021/03/14 06:54:26;;;;;;;1.58;0.70;;;5.10;99.90;;;;;;5041460;28;20036;-76
2021/03/14 06:57:11;;;;;;;1.15;0.73;;;5.10;99.90;;;;;;5046933;28;20100;-76
2021/03/14 06:59:47;;;;;;;0.77;0.73;;;5.10;99.90;;;;;;5045365;28;20025;-76
2021/03/14 07:02:17;;;;;;;0.55;0.55;;;5.20;99.90;;;;;;5042021;28;20499;-76
2021/03/14 07:04:48;;;;;;;1.80;1.00;;;5.20;99.90;;;;;;5059601;28;20431;-75
2021/03/14 07:07:21;;;;;;;0.80;0.80;;;5.20;99.90;;;;;;5052995;28;20077;-76
2021/03/14 07:09:52;;;;;;;2.22;0.90;;;5.20;99.90;;;;;;5046488;28;20021;-76
2021/03/14 07:12:29;;;;;;;;;;;5.30;99.90;;;;;;5047687;28;20483;-76
2021/03/14 07:14:55;;;;;;;2.70;0.80;;;5.30;99.90;;;;;;5049985;28;20022;-75
2021/03/14 07:17:27;;;;;;;2.40;1.02;;;5.30;99.90;;;;;;5043605;28;20024;-76
2021/03/14 07:19:58;;;;;;;1.42;1.02;;;5.30;99.90;;;;;;5042653;28;20025;-75
2021/03/14 07:22:24;;;;;;;1.85;0.90;;;5.30;99.90;;;;;;5048510;28;20033;-75
2021/03/14 07:24:49;;;;;;;1.63;1.15;;;5.30;99.90;;;;;;5053202;28;20854;-76
2021/03/14 07:27:48;;;;;;;1.42;0.85;;;5.30;99.90;;;;;;5045368;28;20033;-76
2021/03/14 07:30:21;;;;;;;0.85;0.85;;;5.40;99.90;;;;;;5044376;28;20289;-76
2021/03/14 07:32:47;;;;;;;6.18;0.93;;;5.30;99.90;;;;;;5046312;28;20153;-76
2021/03/14 07:35:13;;;;;;;2.22;1.10;;;5.30;99.90;;;;;;5048817;28;20025;-76
2021/03/14 07:37:42;;;;;;;2.15;1.17;;;5.30;99.90;;;;;;5057001;28;20040;-75
2021/03/14 07:40:19;;;;;;;2.28;1.17;;;5.40;99.90;;;;;;5047409;28;20430;-76
2021/03/14 07:42:46;;;;;;;12.00;1.63;;;5.40;99.90;;;;;;5049914;28;20032;-76
2021/03/14 07:45:18;;;;;;;4.25;1.27;;;5.40;99.90;;;;;;5049540;28;20029;-76
2021/03/14 07:47:44;;;;;;;2.78;1.33;;;5.40;99.90;;;;;;5045828;28;20045;-75
2021/03/14 07:50:18;;;;;;;2.58;1.25;;;5.50;99.90;;;;;;5048257;28;20495;-76
2021/03/14 07:52:44;;;;;;;3.05;1.02;;;5.50;99.90;;;;;;5032601;28;20032;-76
2021/03/14 07:55:14;;;;;;;3.42;1.20;;;5.60;99.90;;;;;;5050428;28;20028;-75
2021/03/14 07:57:43;;;;;;;3.42;1.20;;;5.60;99.90;;;;;;5060841;28;20025;-76
2021/03/14 08:00:30;;;;;;;3.75;1.13;;;5.60;99.90;;;;;;5055336;28;20040;-75
2021/03/14 08:03:00;;;;;;;2.17;0.93;;;5.60;99.90;;;;;;5070223;28;20064;-76
2021/03/14 08:05:53;;;;;;;1.27;0.90;;;5.60;99.90;;;;;;5053352;28;20487;-76
2021/03/14 08:08:25;;;;;;;1.88;0.93;;;5.70;99.90;;;;;;5056254;28;20377;-75
2021/03/14 08:10:51;;;;;;;;;;;5.70;99.90;;;;;;5054313;28;20055;-76
2021/03/14 08:13:37;;;;;;;2.10;1.00;;;5.70;99.90;;;;;;5057209;28;20367;-76
2021/03/14 08:16:10;;;;;;;3.38;0.98;;;5.70;99.90;;;;;;5056850;28;20123;-76
2021/03/14 08:18:43;;;;;;;2.25;1.50;;;5.70;99.90;;;;;;5055076;28;20017;-75
2021/03/14 08:21:20;;;;;;;2.10;0.93;;;5.70;99.90;;;;;;5050784;28;20104;-75
2021/03/14 08:23:48;;;;;;;1.38;1.00;;;5.70;99.90;;;;;;5048236;28;20028;-75
2021/03/14 08:26:27;;;;;;;2.08;1.13;;;5.70;99.90;;;;;;5048681;28;20036;-74
2021/03/14 08:29:00;;;;;;;1.77;1.20;;;5.80;99.90;;;;;;5048023;28;20033;-77
2021/03/14 08:31:45;;;;;;;1.85;0.90;;;5.80;99.90;;;;;;5045369;28;20017;-77
2021/03/14 08:34:12;;;;;;;2.25;1.20;;;5.80;99.90;;;;;;5045867;28;20013;-77
2021/03/14 08:36:39;;;;;;;3.28;1.27;;;5.80;99.90;;;;;;5047628;28;20021;-76
2021/03/14 08:39:19;;;;;;;2.17;1.38;;;5.80;99.90;;;;;;5032153;28;20043;-76
2021/03/14 08:41:57;;;;;;;4.53;1.33;;;5.80;99.90;;;;;;5041026;28;20030;-75
2021/03/14 08:44:40;;;;;;;1.70;1.05;;;5.80;99.90;;;;;;5049895;28;20465;-75
2021/03/14 08:47:16;;;;;;;1.60;1.23;;;5.90;99.90;;;;;;5050660;28;20028;-75
2021/03/14 08:49:53;;;;;;;4.35;1.60;;;6.00;99.90;;;;;;5046495;28;20066;-75
2021/03/14 08:52:20;;;;;;;2.38;1.25;;;6.00;99.90;;;;;;5050421;28;20471;-75
2021/03/14 08:54:57;;;;;;;3.17;1.20;;;5.90;99.90;;;;;;5052857;28;20024;-74
2021/03/14 08:57:22;;;;;;;1.63;1.10;;;5.90;99.90;;;;;;5048092;28;20387;-75
2021/03/14 08:59:53;;;;;;;1.98;1.38;;;5.80;99.90;;;;;;5047606;28;20029;-75
2021/03/14 09:02:32;;;;;;;1.40;1.10;;;5.80;99.90;;;;;;5053432;28;20044;-78
2021/03/14 09:05:17;;;;;;;1.92;1.20;;;5.70;99.90;;;;;;5054252;28;20087;-75
2021/03/14 09:07:44;;;;;;;1.70;1.08;;;5.70;99.90;;;;;;5045320;28;20628;-74
2021/03/14 09:10:17;;;;;;;2.55;1.30;;;5.80;99.90;;;;;;5051198;28;20481;-71
2021/03/14 09:12:44;;;;;;;1.42;1.30;;;5.90;99.90;;;;;;5048481;28;20090;-71
2021/03/14 09:15:12;;;;;;;5.68;1.30;;;5.90;99.90;;;;;;5055063;28;20082;-73
2021/03/14 09:17:39;;;;;;;2.38;1.30;;;5.90;99.90;;;;;;5049697;28;20028;-72
2021/03/14 09:20:07;;;;;;;3.03;1.25;;;6.00;99.90;;;;;;5052296;28;20025;-72
2021/03/14 09:22:33;;;;;;;2.10;1.40;;;6.00;99.90;;;;;;5051187;28;20021;-72
2021/03/14 09:25:07;;;;;;;2.22;1.40;;;6.10;99.90;;;;;;5050207;28;20037;-71
2021/03/14 09:27:38;;;;;;;2.78;1.20;;;6.20;99.90;;;;;;5053007;28;20113;-73
2021/03/14 09:30:14;;;;;;;4.03;1.33;;;6.20;99.90;;;;;;5054735;28;20502;-72
2021/03/14 09:33:00;;;;;;;3.83;1.30;;;6.20;99.90;;;;;;5027034;28;20069;-71
2021/03/14 09:35:36;;;;;;;2.00;1.30;;;6.20;99.90;;;;;;5051273;28;20477;-72
2021/03/14 09:38:09;;;;;;;7.10;1.58;;;6.20;99.90;;;;;;5047390;28;20566;-77
2021/03/14 09:40:36;;;;;;;2.53;1.25;;;6.20;99.90;;;;;;5048391;28;20055;-75
2021/03/14 09:43:44;;;;;;;2.22;1.20;;;6.30;99.90;;;;;;5047126;28;20522;-74
2021/03/14 09:46:12;;;;;;;7.75;2.25;;;6.50;99.90;;;;;;5050238;28;20028;-76
2021/03/14 09:48:40;;;;;;;3.53;1.50;;;6.60;99.90;;;;;;5046386;28;20461;-74
2021/03/14 09:51:09;;;;;;;2.63;1.55;;;6.60;99.90;;;;;;5053573;28;20383;-78
2021/03/14 09:53:37;;;;;;;4.13;1.60;;;6.60;99.90;;;;;;5051556;28;20098;-73
2021/03/14 09:56:12;;;;;;;6.07;1.80;;;6.60;99.90;;;;;;5049122;28;20036;-73
2021/03/14 09:58:37;;;;;;;5.38;1.55;;;6.60;99.90;;;;;;5055680;28;20017;-75
2021/03/14 10:01:06;;;;;;;7.38;1.92;;;6.50;99.90;;;;;;5053180;28;20073;-73
2021/03/14 10:03:33;;;;;;;5.40;2.38;;;6.40;99.90;;;;;;5047324;28;20033;-75
2021/03/14 10:05:59;;;;;;;4.05;1.77;;;6.40;99.90;;;;;;5042885;28;20028;-71
2021/03/14 10:08:39;;;;;;;7.47;2.05;;;6.40;99.90;;;;;;5051515;28;20020;-71
2021/03/14 10:11:15;;;;;;;3.72;1.98;;;6.40;99.90;;;;;;5049132;28;20033;-73
2021/03/14 10:13:43;;;;;;;4.18;1.77;;;6.40;99.90;;;;;;5047501;28;20033;-73
2021/03/14 10:16:14;;;;;;;2.55;1.80;;;6.40;99.90;;;;;;5049215;28;20025;-74
2021/03/14 10:18:40;;;;;;;3.90;2.10;;;6.50;99.90;;;;;;5051121;28;20028;-73
2021/03/14 10:21:25;;;;;;;6.72;2.05;;;6.50;99.90;;;;;;5052441;28;20925;-73
2021/03/14 10:23:52;;;;;;;4.57;2.28;;;6.60;99.90;;;;;;5049202;28;20067;-72
2021/03/14 10:26:18;;;;;;;7.03;1.92;;;6.60;99.90;;;;;;5048567;28;20028;-73
2021/03/14 10:28:47;;;;;;;4.80;1.73;;;6.60;99.90;;;;;;5049071;28;20031;-73
2021/03/14 10:31:15;;;;;;;5.10;1.77;;;6.70;99.90;;;;;;5048489;28;20387;-73
2021/03/14 10:33:43;;;;;;;2.75;1.42;;;6.70;99.90;;;;;;5047848;28;20037;-73
2021/03/14 10:36:17;;;;;;;3.03;1.35;;;6.70;99.90;;;;;;5049235;28;20116;-73
2021/03/14 10:38:47;;;;;;;7.68;2.05;;;6.70;99.90;;;;;;5049383;28;20025;-73
2021/03/14 10:41:19;;;;;;;2.83;1.50;;;6.70;99.90;;;;;;5050511;28;20025;-73
2021/03/14 10:43:48;;;;;;;3.80;1.67;;;6.80;99.90;;;;;;5046949;28;20120;-72
2021/03/14 10:46:15;;;;;;;4.38;1.75;;;6.70;99.90;;;;;;5052512;28;20036;-74
2021/03/14 10:48:42;;;;;;;6.28;1.90;;;6.70;99.90;;;;;;5048116;28;20056;-73
2021/03/14 10:51:08;;;;;;;2.00;1.63;;;6.70;99.90;;;;;;5047630;28;20028;-73
2021/03/14 10:53:34;;;;;;;5.07;1.75;;;6.80;99.90;;;;;;5049897;28;20031;-73
2021/03/14 10:56:03;;;;;;;6.25;1.65;;;6.80;99.90;;;;;;5047014;28;20487;-72
2021/03/14 10:58:52;;;;;;;4.68;1.83;;;6.80;99.90;;;;;;5046312;28;20052;-73
2021/03/14 11:01:30;;;;;;;5.28;1.52;;;6.80;99.90;;;;;;5043523;28;20590;-73
2021/03/14 11:04:10;;;;;;;5.47;1.80;;;6.80;99.90;;;;;;5045441;28;20040;-74
2021/03/14 11:06:36;;;;;;;3.22;1.45;;;6.80;99.90;;;;;;5052532;28;20024;-74
2021/03/14 11:09:05;;;;;;;7.68;2.05;;;6.80;99.90;;;;;;5049112;28;20777;-73
2021/03/14 11:11:47;;;;;;;3.83;1.60;;;6.80;99.90;;;;;;5048651;28;20483;-73
2021/03/14 11:14:36;;;;;;;3.83;2.00;;;6.80;99.90;;;;;;5045653;28;20065;-74
2021/03/14 11:17:18;;;;;;;6.88;2.20;;;6.80;99.90;;;;;;5044417;28;20017;-73
2021/03/14 11:19:52;;;;;;;5.53;1.70;;;6.90;99.90;;;;;;5044837;28;20500;-73
2021/03/14 11:22:19;;;;;;;6.43;2.08;;;6.90;99.90;;;;;;5046335;28;20029;-73
2021/03/14 11:24:49;;;;;;;5.18;2.00;;;6.90;99.90;;;;;;5046298;28;20028;-74
2021/03/14 11:27:18;;;;;;;7.68;2.22;;;7.00;99.90;;;;;;5056240;28;20040;-73
2021/03/14 11:29:44;;;;;;;3.75;1.98;;;7.10;99.90;;;;;;5044335;28;20635;-73
2021/03/14 11:32:13;;;;;;;6.05;2.00;;;7.10;99.90;;;;;;5044509;28;20098;-74
2021/03/14 11:34:43;;;;;;;2.88;1.92;;;7.10;99.90;;;;;;5047678;28;20033;-74
2021/03/14 11:37:13;;;;;;;8.95;2.00;;;7.20;99.90;;;;;;5047842;28;20387;-74
2021/03/14 11:39:38;;;;;;;4.88;1.77;;;7.20;99.90;;;;;;5044051;28;20552;-74
2021/03/14 11:42:05;;;;;;;5.32;2.53;;;7.30;99.90;;;;;;5046999;28;20025;-74
2021/03/14 11:44:30;;;;;;;5.88;2.50;;;7.30;99.90;;;;;;5041758;28;20047;-74
2021/03/14 11:46:56;;;;;;;4.00;2.20;;;7.40;99.90;;;;;;5048942;28;20120;-73
2021/03/14 11:49:22;;;;;;;6.88;2.22;;;7.60;99.90;;;;;;5044062;28;20076;-73
2021/03/14 11:51:48;;;;;;;5.70;1.60;;;7.70;99.90;;;;;;5024744;28;20071;-73
2021/03/14 11:54:17;;;;;;;3.78;1.52;;;7.80;99.90;;;;;;5046377;28;20399;-74
2021/03/14 11:56:46;;;;;;;4.28;1.60;;;8.00;99.90;;;;;;5047176;28;20699;-73
2021/03/14 11:59:13;;;;;;;5.00;2.22;;;8.10;99.90;;;;;;5051989;28;20031;-72
2021/03/14 12:01:38;;;;;;;8.25;2.30;;;8.10;99.90;;;;;;5053660;28;20120;-72
2021/03/14 12:04:05;;;;;;;6.90;2.58;;;8.10;99.90;;;;;;5046277;28;20100;-72
2021/03/14 12:06:31;;;;;;;8.70;1.60;;;8.20;99.90;;;;;;5052581;28;20079;-72
2021/03/14 12:08:56;;;;;;;5.43;2.05;;;8.10;99.90;;;;;;5047978;28;20044;-71
2021/03/14 12:11:22;;;;;;;7.40;1.70;;;8.10;99.90;;;;;;5045717;28;20094;-71
2021/03/14 12:13:48;;;;;;;6.95;2.13;;;8.20;99.90;;;;;;5050019;28;20032;-73
2021/03/14 12:16:13;;;;;;;4.72;1.85;;;8.20;99.90;;;;;;5053161;28;20025;-72
2021/03/14 12:18:39;;;;;;;3.38;1.63;;;8.50;99.90;;;;;;5050653;28;20025;-71
2021/03/14 12:21:06;;;;;;;4.63;1.52;;;9.20;99.90;;;;;;5046399;28;20025;-73
2021/03/14 12:23:33;;;;;;;4.45;1.98;;;9.40;99.90;;;;;;5046035;28;20033;-73
2021/03/14 12:26:00;;;;;;;4.38;1.98;;;9.50;99.90;;;;;;5043234;28;20188;-72
2021/03/14 12:28:26;;;;;;;4.93;1.30;;;9.50;99.90;;;;;;5058618;28;20119;-73
2021/03/14 12:30:51;;;;;;;5.63;1.90;;;9.40;99.90;;;;;;5066227;28;20119;-72
2021/03/14 12:33:17;;;;;;;4.47;2.00;;;9.20;99.90;;;;;;5056928;28;20481;-72
2021/03/14 12:35:42;;;;;;;3.33;2.10;;;9.20;99.90;;;;;;5052416;28;20488;-74
2021/03/14 12:38:08;;;;;;;13.55;2.55;;;9.20;99.90;;;;;;5054236;28;20933;-73
2021/03/14 12:40:34;;;;;;;6.85;1.95;;;9.10;99.90;;;;;;5051585;28;20048;-73
2021/03/14 12:42:59;;;;;;;5.53;1.60;;;9.10;99.90;;;;;;5054781;28;20040;-73
2021/03/14 12:45:25;;;;;;;4.07;1.88;;;9.10;99.90;;;;;;5047353;28;20025;-72
2021/03/14 12:47:51;;;;;;;6.28;1.48;;;9.10;99.90;;;;;;5056024;28;20136;-72
2021/03/14 12:50:17;;;;;;;3.67;1.42;;;9.00;99.90;;;;;;5054292;28;20039;-75
2021/03/14 12:52:43;;;;;;;4.38;1.52;;;9.00;99.90;;;;;;5052496;28;20028;-75
2021/03/14 12:55:09;;;;;;;3.15;1.67;;;9.00;99.90;;;;;;5047423;28;20017;-76
2021/03/14 12:57:38;;;;;;;2.85;1.20;;;9.20;99.90;;;;;;5053883;28;20017;-72
2021/03/14 13:00:30;;;;;;;3.60;1.40;;;9.10;99.90;;;;;;5055575;28;20012;-72
2021/03/14 13:02:56;;;;;;;2.17;1.40;;;10.00;99.90;;;;;;5042308;28;20037;-73
2021/03/14 13:05:22;;;;;;;1.95;1.10;;;10.10;99.90;;;;;;5047779;28;20027;-71
2021/03/14 13:07:48;;;;;;;4.53;1.60;;;9.70;99.90;;;;;;5056555;28;20020;-73
2021/03/14 13:10:14;;;;;;;6.97;1.50;;;9.40;99.90;;;;;;5054404;28;20033;-73